Time;durP1;ratioP1;P1;durP2;ratioP2;P2;SDS_P1;SDS_P2;PMS_P1;PMS_P2;Temp;Humidity;BMP_temperature;BMP_pressure;BME280_temperature;BME280_humidity;BME280_pressure;Samples;Min_cycle;Max_cycle;Signal;HPM_P1;HPM_P2
2023/09/03 00:04:17;;;;;;;2.78;2.00;;;26.10;76.40;;;;;;10415606;28;20502;-34
2023/09/03 00:09:19;;;;;;;1.98;1.60;;;26.10;76.30;;;;;;10414014;28;20509;-35
2023/09/03 00:14:22;;;;;;;2.65;1.60;;;26.10;76.30;;;;;;10410662;28;20041;-35
2023/09/03 00:19:24;;;;;;;2.45;1.70;;;26.00;76.30;;;;;;10412200;28;20167;-38
2023/09/03 00:24:26;;;;;;;3.10;1.70;;;26.00;76.20;;;;;;10413517;28;20471;-30
2023/09/03 00:29:30;;;;;;;2.28;1.65;;;26.00;76.10;;;;;;10414453;28;20139;-33
2023/09/03 00:34:32;;;;;;;2.20;1.77;;;26.00;76.10;;;;;;10416619;28;20056;-43
2023/09/03 00:39:35;;;;;;;4.40;2.10;;;25.90;75.80;;;;;;10411306;28;20502;-33
2023/09/03 00:44:38;;;;;;;3.42;1.77;;;25.90;75.70;;;;;;10415031;28;20525;-34
2023/09/03 00:49:43;;;;;;;5.85;2.15;;;25.90;76.00;;;;;;10409973;28;20398;-34
2023/09/03 00:54:45;;;;;;;5.28;2.20;;;25.90;76.00;;;;;;10411004;28;20136;-34
2023/09/03 00:59:48;;;;;;;2.50;1.92;;;25.90;75.90;;;;;;10413962;28;20140;-37
2023/09/03 01:04:50;;;;;;;2.50;1.80;;;25.90;76.00;;;;;;10410780;28;20046;-34
2023/09/03 01:09:52;;;;;;;2.92;2.20;;;25.90;76.00;;;;;;10419472;28;20502;-32
2023/09/03 01:15:12;;;;;;;5.50;2.47;;;25.80;76.00;;;;;;10405241;28;20059;-31
2023/09/03 01:20:17;;;;;;;2.67;1.73;;;25.80;76.20;;;;;;10404807;28;20045;-32
2023/09/03 01:25:38;;;;;;;3.63;2.17;;;25.80;76.10;;;;;;10411249;28;20445;-36
2023/09/03 01:30:43;;;;;;;5.03;2.08;;;25.80;76.30;;;;;;10412663;28;20065;-34
2023/09/03 01:35:47;;;;;;;2.92;1.92;;;25.70;76.30;;;;;;10409381;28;20148;-32
2023/09/03 01:40:49;;;;;;;4.30;2.25;;;25.70;76.40;;;;;;10411657;28;20140;-35
2023/09/03 01:45:57;;;;;;;3.22;2.00;;;25.70;76.60;;;;;;10412016;28;20470;-34
2023/09/03 01:51:10;;;;;;;1.88;1.67;;;25.60;76.70;;;;;;10406575;28;20585;-40
2023/09/03 01:56:14;;;;;;;2.42;1.83;;;25.60;76.70;;;;;;10410115;28;20678;-34
2023/09/03 02:01:19;;;;;;;3.80;1.63;;;25.60;76.50;;;;;;10398970;28;20130;-31
2023/09/03 02:06:20;;;;;;;3.28;2.00;;;25.60;77.20;;;;;;10427808;28;20073;-31
2023/09/03 02:11:22;;;;;;;;;;;25.60;76.40;;;;;;10408653;28;20073;-34
2023/09/03 02:16:25;;;;;;;3.88;2.30;;;25.60;76.30;;;;;;10410282;28;20094;-32
2023/09/03 02:21:27;;;;;;;3.25;1.88;;;25.60;76.30;;;;;;10408567;28;20469;-34
2023/09/03 02:26:29;;;;;;;4.20;2.08;;;25.50;76.40;;;;;;10410444;28;20042;-32
2023/09/03 02:31:32;;;;;;;4.30;1.63;;;25.50;76.30;;;;;;10408613;28;20069;-32
2023/09/03 02:36:35;;;;;;;3.15;1.52;;;25.50;76.50;;;;;;10407254;28;20536;-34
2023/09/03 02:41:36;;;;;;;5.53;2.63;;;25.50;76.60;;;;;;10409977;28;20698;-33
2023/09/03 02:46:40;;;;;;;2.28;1.45;;;25.50;76.70;;;;;;10410085;28;20041;-36
2023/09/03 02:51:41;;;;;;;2.58;1.67;;;25.40;77.20;;;;;;10414535;28;20087;-40
2023/09/03 02:56:43;;;;;;;2.22;1.20;;;25.40;77.40;;;;;;10389493;28;20149;-32
2023/09/03 03:15:34;;;;;;;3.45;1.60;;;25.20;78.50;;;;;;10602118;27;20116;-32
2023/09/03 03:20:36;;;;;;;2.17;1.30;;;25.20;78.60;;;;;;10611670;27;20051;-32
2023/09/03 03:25:38;;;;;;;1.45;1.15;;;25.30;77.90;;;;;;10611635;28;20043;-34
2023/09/03 03:30:43;;;;;;;3.10;1.67;;;25.20;77.80;;;;;;10602808;28;20157;-34
2023/09/03 03:35:45;;;;;;;1.63;1.10;;;25.20;78.00;;;;;;10611880;28;20047;-33
2023/09/03 03:40:47;;;;;;;1.25;1.05;;;25.30;77.90;;;;;;10611934;27;20483;-34
2023/09/03 03:45:51;;;;;;;;;;;25.20;77.80;;;;;;10599705;27;20048;-32
2023/09/03 03:50:54;;;;;;;2.13;0.82;;;25.30;77.60;;;;;;10608945;27;20022;-34
2023/09/03 03:56:00;;;;;;;2.55;1.40;;;25.20;77.60;;;;;;10602944;28;20100;-37
2023/09/03 04:01:11;;;;;;;1.77;1.00;;;25.20;77.40;;;;;;10608755;27;20073;-33
2023/09/03 04:06:13;;;;;;;1.67;1.13;;;25.20;77.50;;;;;;10604667;27;20046;-35
2023/09/03 04:11:18;;;;;;;3.05;1.20;;;25.20;77.40;;;;;;10607515;27;20079;-31
2023/09/03 04:16:23;;;;;;;1.50;0.95;;;25.20;77.40;;;;;;10613498;27;20043;-35
2023/09/03 04:21:24;;;;;;;1.52;1.08;;;25.10;77.30;;;;;;10601898;27;20138;-33
2023/09/03 04:26:26;;;;;;;1.08;0.98;;;25.10;77.30;;;;;;10565779;27;20143;-32
2023/09/03 04:31:29;;;;;;;1.30;0.88;;;25.10;77.20;;;;;;10581896;27;20044;-31
2023/09/03 04:36:33;;;;;;;6.63;1.20;;;25.10;77.20;;;;;;10577816;28;20072;-33
2023/09/03 04:41:36;;;;;;;2.20;1.30;;;25.10;77.40;;;;;;10581054;27;20039;-32
2023/09/03 04:46:39;;;;;;;1.52;0.85;;;25.10;77.00;;;;;;10574627;27;20040;-32
2023/09/03 04:51:42;;;;;;;2.30;1.10;;;25.00;77.10;;;;;;10576083;27;20444;-33
2023/09/03 04:56:48;;;;;;;3.90;1.00;;;25.00;77.00;;;;;;10578868;27;20131;-33
2023/09/03 05:01:51;;;;;;;2.03;1.15;;;25.10;77.10;;;;;;10577894;27;20050;-38
2023/09/03 05:06:53;;;;;;;0.95;0.80;;;25.10;77.00;;;;;;10571352;28;20760;-41
2023/09/03 05:11:56;;;;;;;1.65;1.08;;;25.00;76.90;;;;;;10586758;27;20055;-34
2023/09/03 05:16:59;;;;;;;2.75;1.20;;;25.00;77.00;;;;;;10577303;28;20075;-40
2023/09/03 05:22:01;;;;;;;2.33;0.90;;;25.00;77.10;;;;;;10580077;27;20116;-33
2023/09/03 05:27:02;;;;;;;;;;;25.00;77.60;;;;;;10575191;27;20119;-35
2023/09/03 05:32:06;;;;;;;3.90;0.93;;;25.00;77.70;;;;;;10570219;28;19973;-32
2023/09/03 05:37:08;;;;;;;1.02;0.80;;;25.00;77.60;;;;;;10565198;27;20134;-36
2023/09/03 05:42:10;;;;;;;4.45;1.13;;;25.00;77.60;;;;;;10569392;28;20043;-38
2023/09/03 05:47:18;;;;;;;4.88;1.20;;;25.00;77.50;;;;;;10574499;27;20617;-32
2023/09/03 05:52:20;;;;;;;3.00;1.10;;;24.90;77.50;;;;;;10569600;27;20036;-33
2023/09/03 05:57:21;;;;;;;1.20;0.90;;;25.00;77.20;;;;;;10578779;27;20433;-36
2023/09/03 06:02:24;;;;;;;;;;;25.00;76.90;;;;;;10570647;28;20097;-33
2023/09/03 06:07:26;;;;;;;3.20;1.30;;;24.90;77.00;;;;;;10577663;27;19927;-34
2023/09/03 06:12:28;;;;;;;;;;;24.90;77.10;;;;;;10568267;27;20094;-35
2023/09/03 06:17:31;;;;;;;2.00;0.77;;;24.90;77.10;;;;;;10576463;27;19959;-35
2023/09/03 06:22:33;;;;;;;0.75;0.73;;;25.00;76.90;;;;;;10577040;27;20097;-33
2023/09/03 06:27:35;;;;;;;;;;;24.90;76.70;;;;;;10563337;27;20079;-30
2023/09/03 06:32:38;;;;;;;5.43;1.50;;;25.00;77.30;;;;;;10569949;28;19924;-36
2023/09/03 06:37:40;;;;;;;8.98;2.25;;;25.00;77.40;;;;;;10565022;28;20123;-34
2023/09/03 06:42:42;;;;;;;6.80;1.83;;;25.00;77.30;;;;;;10570616;27;20045;-35
2023/09/03 06:47:45;;;;;;;7.93;1.48;;;25.00;76.90;;;;;;10567815;27;20043;-35
2023/09/03 06:52:47;;;;;;;3.28;1.42;;;25.00;76.50;;;;;;10568617;28;20138;-38
2023/09/03 06:57:49;;;;;;;5.90;1.70;;;25.00;76.10;;;;;;10573217;27;20078;-33
2023/09/03 07:02:52;;;;;;;8.52;1.65;;;25.00;75.90;;;;;;10577528;27;20079;-36
2023/09/03 07:07:55;;;;;;;4.05;1.75;;;25.00;75.50;;;;;;10573014;27;20036;-34
2023/09/03 07:12:56;;;;;;;9.02;2.08;;;25.00;75.30;;;;;;10574789;28;20071;-33
2023/09/03 07:18:03;;;;;;;;;;;25.00;74.90;;;;;;10566709;28;20583;-37
2023/09/03 07:23:05;;;;;;;5.32;2.28;;;25.00;74.70;;;;;;10568824;28;19931;-34
2023/09/03 07:28:07;;;;;;;6.07;2.63;;;25.00;74.80;;;;;;10566064;28;20044;-33
2023/09/03 07:33:10;;;;;;;11.27;2.20;;;25.00;74.50;;;;;;10569032;28;20051;-33
2023/09/03 07:38:12;;;;;;;6.93;2.13;;;25.00;74.30;;;;;;10567446;28;20555;-32
2023/09/03 07:43:13;;;;;;;;;;;25.10;74.30;;;;;;10584113;28;20565;-32
2023/09/03 07:48:17;;;;;;;8.15;1.98;;;25.10;74.40;;;;;;10558721;28;19924;-31
2023/09/03 07:53:19;;;;;;;6.68;1.85;;;25.10;74.30;;;;;;10568966;28;20051;-33
2023/09/03 07:58:21;;;;;;;5.45;2.47;;;25.10;74.00;;;;;;10569200;28;20075;-33
2023/09/03 08:03:32;;;;;;;7.70;2.10;;;25.20;73.90;;;;;;10588387;27;20070;-40
2023/09/03 08:08:34;;;;;;;6.55;2.25;;;25.20;73.70;;;;;;10570413;28;20504;-39
2023/09/03 08:13:36;;;;;;;7.88;2.17;;;25.20;73.60;;;;;;10572189;28;20150;-33
2023/09/03 08:18:39;;;;;;;;;;;25.20;73.40;;;;;;10579926;28;21136;-33
2023/09/03 08:23:41;;;;;;;9.10;2.47;;;25.20;73.30;;;;;;10577158;27;19963;-32
2023/09/03 08:28:43;;;;;;;10.68;3.13;;;25.20;73.00;;;;;;10570829;27;20047;-34
2023/09/03 08:33:46;;;;;;;5.35;2.10;;;25.30;72.80;;;;;;10565460;28;20056;-36
2023/09/03 08:38:48;;;;;;;3.15;1.73;;;25.30;73.30;;;;;;10570285;28;20101;-37
2023/09/03 08:43:54;;;;;;;6.88;2.10;;;25.30;72.00;;;;;;10556732;27;20067;-35
2023/09/03 08:48:59;;;;;;;3.25;1.48;;;25.40;72.40;;;;;;10563783;27;20083;-37
2023/09/03 08:54:03;;;;;;;3.03;1.58;;;25.40;72.10;;;;;;10558702;27;20587;-33
2023/09/03 08:59:05;;;;;;;5.07;1.80;;;25.40;72.20;;;;;;10570002;27;20123;-32
2023/09/03 09:04:08;;;;;;;5.55;1.60;;;25.50;72.40;;;;;;10562665;27;20051;-37
2023/09/03 09:09:10;;;;;;;4.15;1.25;;;25.50;73.00;;;;;;10565002;27;20688;-40
2023/09/03 09:14:22;;;;;;;4.10;2.00;;;25.50;72.10;;;;;;10569633;28;20055;-43
2023/09/03 09:19:25;;;;;;;7.30;2.00;;;25.60;72.00;;;;;;10560221;28;20085;-37
2023/09/03 09:24:27;;;;;;;4.13;1.38;;;25.60;72.40;;;;;;10562440;28;20086;-37
2023/09/03 09:29:29;;;;;;;2.97;1.40;;;25.60;72.20;;;;;;10571106;27;20067;-42
2023/09/03 09:34:42;;;;;;;5.13;1.70;;;25.70;71.30;;;;;;10560088;28;20079;-36
2023/09/03 09:39:45;;;;;;;2.53;1.70;;;25.70;71.20;;;;;;10559126;28;20052;-33
2023/09/03 09:44:58;;;;;;;4.10;1.33;;;25.70;71.00;;;;;;10566523;28;20146;-36
2023/09/03 09:50:02;;;;;;;4.25;1.30;;;25.80;70.70;;;;;;10569922;28;20032;-35
2023/09/03 09:55:04;;;;;;;6.63;1.35;;;25.80;70.60;;;;;;10559907;28;20043;-40
2023/09/03 10:00:08;;;;;;;4.00;1.10;;;25.80;70.50;;;;;;10559444;28;20591;-34
2023/09/03 10:05:12;;;;;;;3.22;1.20;;;25.90;70.30;;;;;;10567127;28;20473;-34
2023/09/03 10:10:17;;;;;;;4.85;1.40;;;25.90;70.10;;;;;;10553628;28;20071;-41
2023/09/03 10:15:22;;;;;;;4.50;1.27;;;26.00;69.80;;;;;;10559693;28;20090;-41
2023/09/03 10:20:26;;;;;;;2.08;1.00;;;26.00;69.70;;;;;;10565992;27;20043;-33
2023/09/03 10:25:30;;;;;;;8.00;1.58;;;26.10;69.60;;;;;;10562991;28;20451;-34
2023/09/03 10:30:36;;;;;;;2.28;1.33;;;26.10;69.20;;;;;;10565395;27;20768;-36
2023/09/03 10:35:39;;;;;;;4.38;1.38;;;26.10;69.20;;;;;;10567578;27;20048;-35
2023/09/03 10:40:41;;;;;;;1.25;1.08;;;26.40;68.20;;;;;;10561034;28;20043;-37
2023/09/03 10:46:03;;;;;;;3.92;1.10;;;26.30;68.50;;;;;;10558289;28;20083;-33
2023/09/03 10:51:07;;;;;;;3.33;0.90;;;26.30;68.30;;;;;;10569845;27;20122;-34
2023/09/03 10:56:10;;;;;;;2.35;0.70;;;26.60;67.60;;;;;;10564186;27;20095;-34
2023/09/03 11:01:19;;;;;;;1.27;0.82;;;26.50;68.00;;;;;;10567940;28;20127;-37
2023/09/03 11:06:23;;;;;;;2.78;1.00;;;26.50;67.90;;;;;;10559120;27;20047;-34
2023/09/03 11:11:28;;;;;;;0.93;0.80;;;26.60;67.70;;;;;;10566275;28;20086;-38
2023/09/03 11:16:31;;;;;;;1.30;0.60;;;26.90;66.60;;;;;;10557917;28;20495;-30
2023/09/03 11:21:36;;;;;;;1.92;0.90;;;26.70;67.40;;;;;;10558369;28;20047;-41
2023/09/03 11:26:38;;;;;;;2.50;0.88;;;26.70;67.30;;;;;;10560637;28;20063;-40
2023/09/03 11:31:47;;;;;;;7.15;0.95;;;26.80;67.30;;;;;;10555262;28;20047;-34
2023/09/03 11:36:50;;;;;;;2.00;0.80;;;26.80;67.30;;;;;;10565397;27;20052;-29
2023/09/03 11:41:52;;;;;;;3.03;1.00;;;26.80;67.10;;;;;;10562028;27;20067;-36
2023/09/03 11:46:58;;;;;;;3.08;0.77;;;27.00;66.60;;;;;;10565187;28;20541;-40
2023/09/03 11:52:11;;;;;;;2.33;1.08;;;27.00;66.60;;;;;;10564367;27;20048;-40
2023/09/03 11:57:16;;;;;;;1.30;0.88;;;27.10;66.90;;;;;;10566724;28;20572;-34
2023/09/03 12:02:18;;;;;;;1.48;0.85;;;27.40;65.70;;;;;;10565578;28;20052;-38
2023/09/03 12:07:21;;;;;;;0.98;0.60;;;27.10;65.80;;;;;;10564495;28;20047;-34
2023/09/03 12:12:23;;;;;;;1.38;0.60;;;27.20;65.90;;;;;;10561931;28;20054;-35
2023/09/03 12:17:25;;;;;;;1.30;0.68;;;27.20;66.50;;;;;;10562230;28;20483;-33
2023/09/03 12:22:29;;;;;;;1.83;0.73;;;26.80;66.70;;;;;;10568947;27;20043;-38
2023/09/03 12:27:48;;;;;;;4.43;1.33;;;27.10;66.40;;;;;;10565717;27;20425;-33
2023/09/03 12:32:54;;;;;;;7.05;1.10;;;26.40;63.80;;;;;;10553158;27;20072;-33
2023/09/03 12:38:01;;;;;;;1.35;0.95;;;26.10;68.80;;;;;;10563313;28;20060;-35
2023/09/03 12:43:03;;;;;;;1.17;1.05;;;26.60;64.00;;;;;;10566809;28;20079;-35
2023/09/03 12:48:05;;;;;;;1.20;1.10;;;26.70;67.70;;;;;;10563946;27;20902;-32
2023/09/03 12:53:08;;;;;;;3.55;0.98;;;26.80;66.00;;;;;;10568522;28;20131;-32
2023/09/03 12:58:10;;;;;;;1.58;0.80;;;27.30;65.00;;;;;;10573624;27;20533;-36
2023/09/03 13:03:13;;;;;;;1.80;1.00;;;27.50;64.60;;;;;;10579521;27;20077;-34
2023/09/03 13:08:16;;;;;;;1.92;1.00;;;27.80;64.10;;;;;;10565289;28;20048;-36
2023/09/03 13:13:18;;;;;;;1.00;0.77;;;27.90;62.50;;;;;;10558501;27;20219;-35
2023/09/03 13:18:20;;;;;;;1.60;1.20;;;27.90;64.10;;;;;;10557612;28;20059;-32
2023/09/03 13:23:23;;;;;;;1.27;0.60;;;28.10;61.40;;;;;;10558874;27;20093;-31
2023/09/03 13:28:25;;;;;;;1.15;0.73;;;28.40;62.50;;;;;;10562422;28;20705;-36
2023/09/03 13:33:27;;;;;;;1.40;0.85;;;28.40;62.60;;;;;;10564320;28;20693;-34
2023/09/03 13:38:31;;;;;;;1.17;0.88;;;28.60;61.80;;;;;;10565109;28;20094;-34
2023/09/03 13:43:34;;;;;;;3.30;1.25;;;28.50;62.40;;;;;;10566630;28;20055;-36
2023/09/03 13:48:36;;;;;;;1.65;0.90;;;28.70;58.90;;;;;;10569847;27;20470;-39
2023/09/03 13:53:40;;;;;;;2.17;1.00;;;28.80;61.20;;;;;;10562873;28;20043;-38
2023/09/03 13:58:42;;;;;;;7.05;1.00;;;28.70;59.90;;;;;;10565005;28;20472;-34
2023/09/03 14:03:44;;;;;;;4.45;1.05;;;28.70;59.60;;;;;;10556423;27;20083;-37
2023/09/03 14:08:47;;;;;;;0.85;0.70;;;29.40;59.50;;;;;;10563687;27;20086;-34
2023/09/03 14:13:49;;;;;;;1.35;0.93;;;29.60;60.30;;;;;;10555512;27;20059;-32
2023/09/03 14:18:51;;;;;;;1.95;0.80;;;30.20;56.20;;;;;;10569106;27;20580;-34
2023/09/03 14:23:54;;;;;;;1.50;0.88;;;30.00;59.70;;;;;;10557124;27;20044;-35
2023/09/03 14:28:56;;;;;;;2.35;1.10;;;29.60;60.60;;;;;;10563908;27;20048;-39
2023/09/03 14:33:58;;;;;;;1.10;0.63;;;30.40;58.40;;;;;;10569591;27;20059;-39
2023/09/03 14:39:01;;;;;;;1.65;0.80;;;30.20;59.30;;;;;;10558822;28;20143;-32
2023/09/03 14:44:03;;;;;;;2.72;0.70;;;30.60;58.60;;;;;;10555830;28;20199;-34
2023/09/03 14:49:04;;;;;;;2.10;0.82;;;30.60;59.10;;;;;;10566090;27;20134;-32
2023/09/03 14:54:08;;;;;;;2.72;1.00;;;30.20;59.20;;;;;;10558765;27;20056;-35
2023/09/03 14:59:10;;;;;;;2.97;1.50;;;30.70;56.80;;;;;;10563289;28;20074;-30
2023/09/03 15:04:12;;;;;;;1.77;1.10;;;31.30;56.70;;;;;;10561213;27;20063;-34
2023/09/03 15:09:15;;;;;;;0.90;0.63;;;30.60;58.50;;;;;;10564610;27;20036;-42
2023/09/03 15:14:17;;;;;;;2.85;1.30;;;30.50;59.30;;;;;;10550444;28;20083;-32
2023/09/03 15:19:18;;;;;;;4.38;1.58;;;30.50;59.00;;;;;;10532784;28;20053;-35
2023/09/03 15:24:22;;;;;;;2.03;1.10;;;30.80;58.40;;;;;;10559213;28;20118;-34
2023/09/03 15:29:23;;;;;;;2.25;0.93;;;30.70;59.40;;;;;;10572893;28;20096;-32
2023/09/03 15:34:25;;;;;;;1.40;1.25;;;30.80;60.00;;;;;;10569964;28;20090;-32
2023/09/03 15:39:28;;;;;;;1.88;1.20;;;31.00;58.70;;;;;;10563780;28;20071;-35
2023/09/03 15:44:30;;;;;;;1.55;0.93;;;31.10;59.30;;;;;;10567322;28;20504;-35
2023/09/03 15:49:32;;;;;;;1.58;0.93;;;30.80;58.90;;;;;;10567648;28;20123;-36
2023/09/03 15:54:37;;;;;;;2.25;0.90;;;31.30;57.40;;;;;;10568090;28;20047;-33
2023/09/03 15:59:39;;;;;;;3.00;0.98;;;31.70;55.10;;;;;;10564533;28;20552;-43
2023/09/03 16:04:41;;;;;;;2.42;1.23;;;31.30;58.10;;;;;;10566198;28;20090;-38
2023/09/03 16:09:44;;;;;;;1.40;1.00;;;32.00;56.30;;;;;;10564945;28;20109;-36
2023/09/03 16:14:46;;;;;;;1.52;0.90;;;31.30;57.60;;;;;;10577732;28;20063;-34
2023/09/03 16:19:48;;;;;;;1.58;0.82;;;30.90;58.00;;;;;;10574380;27;20048;-37
2023/09/03 16:24:51;;;;;;;2.85;1.10;;;30.80;58.50;;;;;;10575920;27;20081;-33
2023/09/03 16:29:53;;;;;;;2.85;1.15;;;30.90;58.60;;;;;;10576895;28;20131;-32
2023/09/03 16:34:57;;;;;;;1.92;1.13;;;30.80;58.90;;;;;;10571712;28;20113;-32
2023/09/03 16:40:00;;;;;;;1.95;1.40;;;30.80;58.70;;;;;;10575746;28;20500;-40
2023/09/03 16:45:02;;;;;;;2.97;1.30;;;30.70;58.80;;;;;;10573167;27;20104;-36
2023/09/03 16:50:04;;;;;;;2.05;1.30;;;30.60;59.30;;;;;;10582014;27;20051;-34
2023/09/03 16:55:08;;;;;;;5.38;1.67;;;30.60;59.40;;;;;;10572167;28;20052;-38
2023/09/03 17:00:11;;;;;;;3.75;1.35;;;30.60;59.70;;;;;;10566825;27;20472;-31
2023/09/03 17:05:13;;;;;;;4.25;1.50;;;30.60;59.80;;;;;;10563551;27;20503;-34
2023/09/03 17:10:17;;;;;;;3.58;1.42;;;30.60;59.70;;;;;;10570192;27;20097;-36
2023/09/03 17:15:18;;;;;;;2.53;1.30;;;30.70;60.00;;;;;;10572704;27;20053;-35
2023/09/03 17:20:21;;;;;;;2.92;1.10;;;30.60;60.00;;;;;;10573341;27;20101;-31
2023/09/03 17:25:25;;;;;;;4.13;1.58;;;30.80;59.80;;;;;;10574107;28;20043;-42
2023/09/03 17:30:27;;;;;;;2.35;1.27;;;30.80;59.90;;;;;;10572778;28;20563;-32
2023/09/03 17:35:29;;;;;;;2.05;1.13;;;30.70;60.70;;;;;;10565959;28;20702;-35
2023/09/03 17:40:32;;;;;;;3.63;1.10;;;30.80;60.60;;;;;;10562071;28;20492;-41
2023/09/03 17:45:39;;;;;;;3.33;1.20;;;30.80;60.60;;;;;;10572409;27;20071;-37
2023/09/03 17:51:44;;;;;;;1.55;0.90;;;30.80;60.00;;;;;;10575060;28;20124;-34
2023/09/03 17:57:07;;;;;;;1.55;0.75;;;30.80;59.80;;;;;;10558377;28;20056;-35
2023/09/03 18:02:09;;;;;;;1.42;0.90;;;30.80;60.00;;;;;;10581701;27;20130;-38
2023/09/03 18:07:11;;;;;;;2.00;0.90;;;30.80;60.10;;;;;;10572123;27;20070;-33
2023/09/03 18:12:14;;;;;;;1.38;0.82;;;30.70;60.10;;;;;;10560164;28;20055;-34
2023/09/03 18:17:16;;;;;;;2.55;1.50;;;30.60;60.20;;;;;;10572848;28;20612;-33
2023/09/03 18:22:18;;;;;;;1.30;0.82;;;30.60;60.10;;;;;;10561244;28;20753;-36
2023/09/03 18:27:21;;;;;;;1.25;0.80;;;30.50;60.10;;;;;;10563394;28;20089;-32
2023/09/03 18:32:23;;;;;;;1.08;0.85;;;30.50;60.10;;;;;;10570345;28;20071;-35
2023/09/03 18:37:25;;;;;;;1.50;1.02;;;30.50;60.40;;;;;;10564164;28;20142;-34
2023/09/03 18:42:28;;;;;;;1.95;0.93;;;30.30;60.40;;;;;;10561773;28;20165;-34
2023/09/03 18:47:30;;;;;;;2.35;1.20;;;30.30;60.50;;;;;;10567468;28;20078;-35
2023/09/03 18:52:31;;;;;;;4.22;1.10;;;30.20;60.80;;;;;;10572187;27;20081;-40
2023/09/03 18:57:34;;;;;;;2.40;1.17;;;30.10;60.70;;;;;;10561606;28;20052;-34
2023/09/03 19:02:36;;;;;;;6.10;1.45;;;30.10;60.80;;;;;;10565098;28;20040;-38
2023/09/03 19:07:38;;;;;;;4.65;1.90;;;30.00;60.80;;;;;;10564231;27;20807;-39
2023/09/03 19:12:41;;;;;;;5.72;1.60;;;29.90;60.90;;;;;;10561627;27;20441;-32
2023/09/03 19:17:43;;;;;;;5.78;2.00;;;29.90;61.00;;;;;;10568073;28;20142;-38
2023/09/03 19:22:45;;;;;;;4.47;2.47;;;29.80;61.00;;;;;;10563890;28;20109;-35
2023/09/03 19:27:48;;;;;;;8.63;2.30;;;29.80;61.00;;;;;;10556895;28;20575;-36
2023/09/03 19:32:51;;;;;;;7.95;2.00;;;29.70;61.00;;;;;;10557560;28;20071;-32
2023/09/03 19:37:53;;;;;;;9.38;2.05;;;29.60;61.00;;;;;;10554456;28;20582;-33
2023/09/03 19:42:57;;;;;;;5.57;2.15;;;29.60;61.00;;;;;;10562740;28;20044;-31
2023/09/03 19:48:17;;;;;;;6.90;2.60;;;29.50;61.00;;;;;;10564914;28;20501;-34
2023/09/03 19:53:19;;;;;;;3.95;1.65;;;29.50;61.10;;;;;;10561192;28;20054;-35
2023/09/03 19:58:22;;;;;;;6.97;1.67;;;29.40;61.10;;;;;;10574005;28;20078;-35
2023/09/03 20:03:24;;;;;;;4.30;1.50;;;29.30;61.00;;;;;;10574143;27;20483;-34
2023/09/03 20:08:26;;;;;;;7.15;1.80;;;29.30;61.20;;;;;;10563357;27;20047;-33
2023/09/03 20:13:29;;;;;;;2.92;1.63;;;29.20;61.10;;;;;;10567199;28;20052;-32
2023/09/03 20:18:31;;;;;;;3.90;1.33;;;29.20;61.10;;;;;;10564014;28;20127;-40
2023/09/03 20:23:33;;;;;;;3.45;1.40;;;29.10;61.10;;;;;;10565941;28;20058;-37
2023/09/03 20:28:36;;;;;;;3.35;1.27;;;29.10;61.20;;;;;;10561391;28;20044;-35
2023/09/03 20:33:38;;;;;;;2.67;1.00;;;29.00;61.10;;;;;;10571998;27;20048;-34
2023/09/03 20:38:40;;;;;;;1.83;1.02;;;28.90;61.10;;;;;;10571103;28;20054;-35
2023/09/03 20:43:43;;;;;;;2.03;1.83;;;28.90;61.10;;;;;;10563354;28;20043;-31
2023/09/03 20:48:45;;;;;;;2.08;1.15;;;28.90;61.10;;;;;;10570024;27;20613;-38
2023/09/03 20:53:47;;;;;;;3.75;1.40;;;28.80;61.20;;;;;;10574620;28;20044;-31
2023/09/03 20:58:50;;;;;;;2.45;1.27;;;28.80;61.40;;;;;;10566201;28;20507;-31
2023/09/03 21:03:52;;;;;;;2.80;1.02;;;28.70;61.40;;;;;;10569497;28;20139;-39
2023/09/03 21:08:54;;;;;;;2.75;1.25;;;28.60;61.40;;;;;;10569045;28;20553;-32
2023/09/03 21:13:58;;;;;;;1.75;1.00;;;28.60;61.50;;;;;;10574564;28;20074;-31
2023/09/03 21:19:00;;;;;;;1.67;1.10;;;28.60;61.60;;;;;;10574964;28;20055;-36
2023/09/03 21:24:02;;;;;;;2.85;1.30;;;28.60;61.60;;;;;;10571477;28;20123;-33
2023/09/03 21:29:06;;;;;;;1.95;1.05;;;28.50;61.70;;;;;;10567794;27;20040;-31
2023/09/03 21:34:07;;;;;;;2.08;1.00;;;28.50;61.80;;;;;;10572185;28;20043;-41
2023/09/03 21:39:09;;;;;;;3.33;1.20;;;28.40;62.00;;;;;;10575305;28;20083;-33
2023/09/03 21:44:17;;;;;;;3.00;1.17;;;28.40;62.10;;;;;;10559120;28;20223;-32
2023/09/03 21:49:18;;;;;;;0.95;0.82;;;28.40;62.10;;;;;;10563959;28;20079;-35
2023/09/03 21:54:20;;;;;;;2.53;1.10;;;28.30;62.00;;;;;;10572930;28;20044;-33
2023/09/03 21:59:24;;;;;;;4.65;1.33;;;28.30;62.20;;;;;;10571760;28;20501;-33
2023/09/03 22:04:25;;;;;;;2.22;1.25;;;28.20;62.30;;;;;;10563728;28;20078;-35
2023/09/03 22:09:29;;;;;;;2.20;1.00;;;28.20;62.40;;;;;;10581340;27;20067;-42
2023/09/03 22:14:32;;;;;;;1.77;1.05;;;28.20;62.50;;;;;;10559353;28;20130;-36
2023/09/03 22:19:34;;;;;;;3.78;1.17;;;28.10;62.40;;;;;;10567160;28;20044;-33
2023/09/03 22:24:35;;;;;;;2.22;1.23;;;28.10;62.40;;;;;;10563832;28;20101;-34
2023/09/03 22:29:39;;;;;;;1.58;1.20;;;28.00;62.40;;;;;;10555391;28;20054;-37
2023/09/03 22:34:40;;;;;;;2.10;0.88;;;28.00;62.50;;;;;;10562729;28;20039;-41
2023/09/03 22:39:42;;;;;;;3.35;0.95;;;28.00;63.10;;;;;;10568894;28;20575;-34
2023/09/03 22:44:46;;;;;;;1.35;1.17;;;27.90;62.40;;;;;;10571783;28;20150;-36
2023/09/03 22:49:48;;;;;;;1.75;0.88;;;27.90;62.50;;;;;;10568865;28;20101;-33
2023/09/03 22:54:50;;;;;;;2.83;1.10;;;27.80;62.50;;;;;;10571042;28;20520;-37
2023/09/03 22:59:53;;;;;;;2.05;1.25;;;27.80;62.50;;;;;;10567881;28;21548;-35
2023/09/03 23:04:55;;;;;;;2.78;1.10;;;27.80;62.50;;;;;;10564754;28;20052;-32
2023/09/03 23:09:57;;;;;;;5.40;1.27;;;27.70;62.40;;;;;;10554810;28;20043;-32
2023/09/03 23:15:00;;;;;;;1.15;1.00;;;27.70;62.90;;;;;;10559296;28;20147;-34
2023/09/03 23:20:05;;;;;;;1.40;1.10;;;27.60;62.40;;;;;;10558743;28;20044;-39
2023/09/03 23:25:07;;;;;;;3.97;1.77;;;27.60;62.50;;;;;;10558183;28;20040;-37
2023/09/03 23:30:11;;;;;;;2.50;1.13;;;27.60;62.50;;;;;;10563247;28;20051;-33
2023/09/03 23:35:13;;;;;;;3.55;1.50;;;27.50;62.40;;;;;;10569792;28;20066;-35
2023/09/03 23:40:16;;;;;;;1.20;0.85;;;27.50;62.50;;;;;;10578723;28;20047;-32
2023/09/03 23:45:19;;;;;;;1.92;1.20;;;27.50;62.60;;;;;;10575936;28;20059;-32
2023/09/03 23:50:21;;;;;;;1.40;1.15;;;27.40;62.50;;;;;;10576429;28;20482;-32
2023/09/03 23:55:23;;;;;;;1.40;1.05;;;27.40;62.60;;;;;;10570024;28;20051;-33
